Terminal Aerodrome Forecast
Issued by NWS Jackson, KY

Home | Current Version | Previous Version | Text Only | Print | Product List | Glossary On
Versions: 1 2 3 4 5 6 7 8 9 10 11 12
237
FTUS43 KJKL 221120
TAFLOZ
TAF
KLOZ 221120Z 2212/2312 VRB03KT P6SM FEW250
     FM221400 19004KT P6SM SCT040
     FM221700 24008KT P6SM VCTS SCT040CB BKN060
     FM222300 25008KT 5SM TSRA BKN040CB
     FM230300 23003KT 5SM -SHRA VCTS BKN025CB
     FM230700 26004KT 5SM BR VCTS BKN025CB=

USA.gov is the U.S. government's official web portal to all federal, state and local government web resources and services.